Cairo, Egypt

2:02 PM EET on August 26, 2016 (GMT +0200)
Cairo International | | Change Station

Elev 243 ft 30.11 °N, 31.41 °E | Updated 2 minutes ago

Clear
Clear
97 °F
Feels Like 97 °F
N
12
Wind Variable Wind from North

Today
High -- | Low -- °F
--% Chance of Precip.
Yesterday
High -- | Low -- °F
Precip. -- in
Pressure 29.86 in
Visibility -9999.0 miles
Clouds
Heat Index 97 °F
Dew Point 61 °F
Humidity 30%
Rainfall 0.00 in
Snow Depth Not available.
5:28 AM 6:23 PM
Waning Crescent, 35% visible
METAR HECA 261200Z 36010KT CAVOK 36/16 Q1011 NOSIG
Pressure 29.86 in
Visibility -9999.0 miles
Clouds
Heat Index 97 °F
Dew Point 61 °F
Humidity 30%
Rainfall 0.00 in
Snow Depth Not available.
5:28 AM 6:23 PM
Waning Crescent, 35% visible
METAR HECA 261200Z 36010KT CAVOK 36/16 Q1011 NOSIG

10-Day Weather Forecast

No radar image for this location.
×

Almanac

Astronomy

Aug. 26, 2016 Rise Set
Actual Time
Civil Twilight
Nautical Twilight
Astronomical Twilight
Moon
Length of Visible Light
Length of Day
Tomorrow will be .
, % of the Moon is Illuminated

Today's Extremes

Country Highs Country Lows

Community

WunderPhotos

Upload Photos

1,935,077 photos uploaded!

WunderBlog® & News

Nearby

Air Quality

  Air Quality AQ Index Pollutant
Not available.

Snow Depth

Station Depth Elevation

Earthquake Activity

City Distance Mag. Time & Date
Minimum magnitude displayed is 2.5.

Coastal Water Temperatures

Place Temperature

Stations

Nearby Weather Stations

Station Location Temp. Windchill Dew Point Humidity Wind Precip. Elev Updated Type